Producer — WDH9695 — position and weather

sailwx.info

Track history (hours):
 
Tides and Currents Weather Stations Pressure Air Temp Water Temp Dewpoint Dewpoint Depression Visibility Wind Speed Wind Dir Waves Ship Positions

Producer

Owner: Pro Sportfishing, San Diego, CA, CA. More information available from US FCC via Universal Licensing System and Coast Guard Vessel Documentation Center.

Last reported at 2017-Nov-26 12:49 UTC. Time now 2017-Dec-15 10:25 UTC.
Position N 32°43' W 117°13'.
Warning: this ship's position is 18 days out of date.

Type: Passenger vessel. MMSI: 367033990.

Date/timePositionNaut miles runAvg speedWind from/ knotsBaromVisibWave heightAir tempDewpointWater temp
2017-Nov-26 12:49N 32°43' W 117°13'7 2.6
2017-Nov-26 10:02N 32°36' W 117°16'0 7.1
2017-Nov-26 10:01N 32°36' W 117°16'7 7.2
2017-Nov-26 09:05N 32°34' W 117°23'1 7.2
2017-Nov-26 08:58N 32°34' W 117°24'7 8.4
2017-Nov-26 08:09N 32°30' W 117°31'1 8.2
2017-Nov-26 08:00N 32°30' W 117°33'6 8.2
2017-Nov-26 07:14N 32°26' W 117°39'2 7.9
2017-Nov-26 07:00N 32°25' W 117°40'4 8.0
2017-Nov-26 06:30N 32°23' W 117°44'4 8.1
2017-Nov-26 06:00N 32°21' W 117°48'4 8.1
2017-Nov-26 05:30N 32°18' W 117°52'13 8.3
2017-Nov-26 03:56N 32°11' W 118°05'3 8.2
2017-Nov-26 03:31N 32°09' W 118°08'4 7.2
2017-Nov-26 03:01N 32°07' W 118°12'3 5.8
2017-Nov-26 02:31N 32°05' W 118°14'0 0.9
2017-Nov-26 02:00N 32°05' W 118°15'0 0.1
2017-Nov-26 01:30N 32°05' W 118°15'0 0.1
2017-Nov-26 01:00N 32°05' W 118°15'0 0.0
2017-Nov-26 00:31N 32°05' W 118°15'0 0.0
2017-Nov-26 00:01N 32°05' W 118°15'0 0.1
2017-Nov-25 23:30N 32°05' W 118°15'0 0.0
2017-Nov-25 22:59N 32°05' W 118°15'0 0.0
2017-Nov-25 22:22N 32°05' W 118°15'0 0.1
2017-Nov-25 22:01N 32°05' W 118°15'0 0.0
2017-Nov-25 21:23N 32°05' W 118°15'0 0.1
2017-Nov-25 20:59N 32°05' W 118°15'0 0.0
2017-Nov-25 20:30N 32°05' W 118°15'0 0.0
2017-Nov-25 20:00N 32°05' W 118°15'0 0.0
2017-Nov-25 16:51N 32°05' W 118°15'0 0.0
2017-Nov-25 16:27N 32°05' W 118°15'0 0.0
2017-Nov-25 15:39N 32°05' W 118°15'0 0.0
2017-Nov-25 15:31N 32°05' W 118°15'0 0.0
2017-Nov-25 15:00N 32°05' W 118°15'0 0.1
2017-Nov-25 14:09N 32°05' W 118°15'0 0.0
2017-Nov-25 13:59N 32°05' W 118°15'0 0.0
2017-Nov-25 13:25N 32°05' W 118°15'0 0.5
2017-Nov-25 13:00N 32°05' W 118°15'3 5.9
2017-Nov-25 12:30N 32°06' W 118°11'35 9.1
2017-Nov-25 08:38N 32°23' W 117°35'1 9.1
2017-Nov-25 08:30N 32°24' W 117°35'  
Track history (hours):
 
Tides and Currents Weather Stations Pressure Air Temp Water Temp Dewpoint Dewpoint Depression Visibility Wind Speed Wind Dir Waves Ship Positions

Producer

Owner: Pro Sportfishing, San Diego, CA, CA. More information available from US FCC via Universal Licensing System and Coast Guard Vessel Documentation Center.

Last reported at 2017-Nov-26 12:49 UTC. Time now 2017-Dec-15 10:25 UTC.
Position N 32°43' W 117°13'.
Warning: this ship's position is 18 days out of date.

Type: Passenger vessel. MMSI: 367033990.

Date/timePositionNaut miles runAvg speedWind from/ knotsBaromVisibWave heightAir tempDewpointWater temp
2017-Nov-26 12:49N 32°43' W 117°13'7 2.6
2017-Nov-26 10:02N 32°36' W 117°16'0 7.1
2017-Nov-26 10:01N 32°36' W 117°16'7 7.2
2017-Nov-26 09:05N 32°34' W 117°23'1 7.2
2017-Nov-26 08:58N 32°34' W 117°24'7 8.4
2017-Nov-26 08:09N 32°30' W 117°31'1 8.2
2017-Nov-26 08:00N 32°30' W 117°33'6 8.2
2017-Nov-26 07:14N 32°26' W 117°39'2 7.9
2017-Nov-26 07:00N 32°25' W 117°40'4 8.0
2017-Nov-26 06:30N 32°23' W 117°44'4 8.1
2017-Nov-26 06:00N 32°21' W 117°48'4 8.1
2017-Nov-26 05:30N 32°18' W 117°52'13 8.3
2017-Nov-26 03:56N 32°11' W 118°05'3 8.2
2017-Nov-26 03:31N 32°09' W 118°08'4 7.2
2017-Nov-26 03:01N 32°07' W 118°12'3 5.8
2017-Nov-26 02:31N 32°05' W 118°14'0 0.9
2017-Nov-26 02:00N 32°05' W 118°15'0 0.1
2017-Nov-26 01:30N 32°05' W 118°15'0 0.1
2017-Nov-26 01:00N 32°05' W 118°15'0 0.0
2017-Nov-26 00:31N 32°05' W 118°15'0 0.0
2017-Nov-26 00:01N 32°05' W 118°15'0 0.1
2017-Nov-25 23:30N 32°05' W 118°15'0 0.0
2017-Nov-25 22:59N 32°05' W 118°15'0 0.0
2017-Nov-25 22:22N 32°05' W 118°15'0 0.1
2017-Nov-25 22:01N 32°05' W 118°15'0 0.0
2017-Nov-25 21:23N 32°05' W 118°15'0 0.1
2017-Nov-25 20:59N 32°05' W 118°15'0 0.0
2017-Nov-25 20:30N 32°05' W 118°15'0 0.0
2017-Nov-25 20:00N 32°05' W 118°15'0 0.0
2017-Nov-25 16:51N 32°05' W 118°15'0 0.0
2017-Nov-25 16:27N 32°05' W 118°15'0 0.0
2017-Nov-25 15:39N 32°05' W 118°15'0 0.0
2017-Nov-25 15:31N 32°05' W 118°15'0 0.0
2017-Nov-25 15:00N 32°05' W 118°15'0 0.1
2017-Nov-25 14:09N 32°05' W 118°15'0 0.0
2017-Nov-25 13:59N 32°05' W 118°15'0 0.0
2017-Nov-25 13:25N 32°05' W 118°15'0 0.5
2017-Nov-25 13:00N 32°05' W 118°15'3 5.9
2017-Nov-25 12:30N 32°06' W 118°11'35 9.1
2017-Nov-25 08:38N 32°23' W 117°35'1 9.1
2017-Nov-25 08:30N 32°24' W 117°35'  

Dump ship's entire track history